createdAt,value
2023-09-27T00:04:30.712Z,15.66
2023-09-27T00:09:36.328Z,15.64
2023-09-27T00:14:44.119Z,15.50
2023-09-27T00:19:49.676Z,15.35
2023-09-27T00:24:55.266Z,15.17
2023-09-27T00:30:03.356Z,15.33
2023-09-27T00:35:16.238Z,15.42
2023-09-27T00:40:24.049Z,15.39
2023-09-27T00:45:32.031Z,15.41
2023-09-27T00:50:37.636Z,15.39
2023-09-27T00:55:42.880Z,15.38
2023-09-27T01:00:53.734Z,15.21
2023-09-27T01:05:59.223Z,15.21
2023-09-27T01:11:05.762Z,15.11
2023-09-27T01:16:13.709Z,15.25
2023-09-27T01:21:20.812Z,15.19
2023-09-27T01:26:31.100Z,15.33
2023-09-27T01:31:36.841Z,15.44
2023-09-27T01:36:42.210Z,15.73
2023-09-27T01:41:50.346Z,15.71
2023-09-27T01:46:56.137Z,15.66
2023-09-27T01:52:01.781Z,15.60
2023-09-27T01:57:10.050Z,15.58
2023-09-27T02:02:15.396Z,15.70
2023-09-27T02:07:20.695Z,15.65
2023-09-27T02:12:28.660Z,15.47
2023-09-27T02:17:34.168Z,15.57
2023-09-27T02:22:39.794Z,15.68
2023-09-27T02:27:48.153Z,15.51
2023-09-27T02:32:54.239Z,15.28
2023-09-27T02:37:59.536Z,15.63
2023-09-27T02:43:07.586Z,15.67
2023-09-27T02:48:12.882Z,15.45
2023-09-27T02:53:18.243Z,15.63
2023-09-27T02:58:34.648Z,15.40
2023-09-27T03:03:39.900Z,15.55
2023-09-27T03:08:45.738Z,15.47
2023-09-27T03:13:53.593Z,15.29
2023-09-27T03:18:59.940Z,15.12
2023-09-27T03:24:06.955Z,15.21
2023-09-27T03:29:19.817Z,15.05
2023-09-27T03:34:32.953Z,15.06
2023-09-27T03:39:38.787Z,15.25
2023-09-27T03:44:48.794Z,15.30
2023-09-27T03:49:56.238Z,15.18
2023-09-27T03:55:02.841Z,15.11
2023-09-27T04:00:18.482Z,15.17
2023-09-27T04:05:28.669Z,14.80
2023-09-27T04:10:35.428Z,14.69
2023-09-27T04:15:43.391Z,14.89
2023-09-27T04:20:48.831Z,14.91
2023-09-27T04:25:54.012Z,14.74
2023-09-27T04:31:02.492Z,14.64
2023-09-27T04:36:12.490Z,14.78
2023-09-27T04:41:19.422Z,14.96
2023-09-27T04:46:31.077Z,14.96
2023-09-27T04:51:37.277Z,14.97
2023-09-27T04:56:42.526Z,15.08
2023-09-27T05:01:50.342Z,15.26
2023-09-27T05:06:55.878Z,15.24
2023-09-27T05:12:01.728Z,14.91
2023-09-27T05:17:11.037Z,15.31
2023-09-27T05:22:20.595Z,15.26
2023-09-27T05:27:25.833Z,15.39
2023-09-27T05:32:36.745Z,15.20
2023-09-27T05:37:43.053Z,15.22
2023-09-27T05:42:48.508Z,15.62
2023-09-27T05:47:57.854Z,15.81
2023-09-27T05:53:06.569Z,17.59
2023-09-27T05:58:11.971Z,21.46
2023-09-27T06:03:19.803Z,24.17
2023-09-27T06:08:30.345Z,25.76
2023-09-27T06:13:38.833Z,24.81
2023-09-27T06:18:49.309Z,25.84
2023-09-27T06:23:54.476Z,24.48
2023-09-27T06:28:59.672Z,25.62
2023-09-27T06:34:10.300Z,26.27
2023-09-27T06:39:20.982Z,29.44
2023-09-27T06:44:26.703Z,29.02
2023-09-27T06:49:37.478Z,29.89
2023-09-27T06:54:46.822Z,29.53
2023-09-27T06:59:53.415Z,31.44
2023-09-27T07:05:10.746Z,30.38
2023-09-27T07:10:18.276Z,30.38
2023-09-27T07:15:25.194Z,31.58
2023-09-27T07:20:34.660Z,31.40
2023-09-27T07:25:39.984Z,30.08
2023-09-27T07:30:46.604Z,31.48
2023-09-27T07:35:54.421Z,30.67
2023-09-27T07:41:02.966Z,31.21
2023-09-27T07:46:09.633Z,30.79
2023-09-27T07:51:20.256Z,32.00
2023-09-27T07:56:27.748Z,32.38
2023-09-27T08:01:34.766Z,30.78
2023-09-27T08:06:46.869Z,31.31
2023-09-27T08:11:52.287Z,30.07
2023-09-27T08:16:57.617Z,30.37
2023-09-27T08:22:07.459Z,30.44
2023-09-27T08:27:13.784Z,29.93
2023-09-27T08:32:19.138Z,29.67
2023-09-27T08:37:27.013Z,26.89
2023-09-27T08:42:36.034Z,25.69
2023-09-27T08:47:47.990Z,30.05
2023-09-27T08:52:57.489Z,27.56
2023-09-27T08:58:03.486Z,29.18
2023-09-27T09:03:12.441Z,26.86
2023-09-27T09:08:42.299Z,27.07
2023-09-27T09:14:06.159Z,27.13
2023-09-27T09:24:36.560Z,28.13
2023-09-27T09:29:53.263Z,27.17
2023-09-27T09:34:59.650Z,27.56
2023-09-27T09:40:14.584Z,28.15
2023-09-27T09:45:21.275Z,27.53
2023-09-27T09:50:28.378Z,27.58
2023-09-27T09:56:01.137Z,26.86
2023-09-27T10:01:06.740Z,25.90
2023-09-27T10:06:12.856Z,27.58
2023-09-27T10:11:24.770Z,27.33
2023-09-27T10:16:33.409Z,27.15
2023-09-27T10:21:50.934Z,26.82
2023-09-27T10:27:03.789Z,28.05
2023-09-27T10:32:25.342Z,26.60
2023-09-27T10:38:08.501Z,27.08
2023-09-27T10:43:48.853Z,26.14
2023-09-27T10:48:57.356Z,26.84
2023-09-27T10:54:03.539Z,27.25
2023-09-27T10:59:12.661Z,27.50
2023-09-27T11:04:21.392Z,26.99
2023-09-27T11:09:28.623Z,27.96
2023-09-27T11:14:50.245Z,27.52
2023-09-27T11:19:56.786Z,28.41
2023-09-27T11:25:06.796Z,28.60
2023-09-27T11:30:28.706Z,28.05
2023-09-27T11:35:34.115Z,28.31
2023-09-27T11:40:40.151Z,28.13
2023-09-27T11:45:49.627Z,27.66
2023-09-27T11:50:55.490Z,28.66
2023-09-27T11:56:05.097Z,28.19
2023-09-27T12:01:16.870Z,28.15
2023-09-27T12:06:23.464Z,27.49
2023-09-27T12:11:29.612Z,28.32
2023-09-27T12:16:39.828Z,28.37
2023-09-27T12:21:45.517Z,28.45
2023-09-27T12:26:53.115Z,28.87
2023-09-27T12:32:03.224Z,27.65
2023-09-27T12:37:28.486Z,27.70
2023-09-27T12:42:35.074Z,27.81
2023-09-27T12:47:43.619Z,28.43
2023-09-27T12:52:51.028Z,27.70
2023-09-27T12:57:57.433Z,28.51
2023-09-27T13:03:05.918Z,27.52
2023-09-27T13:08:12.532Z,27.47
2023-09-27T13:13:18.593Z,27.65
2023-09-27T13:18:27.101Z,28.26
2023-09-27T13:23:32.895Z,27.67
2023-09-27T13:28:40.110Z,28.29
2023-09-27T13:33:58.968Z,27.97
2023-09-27T13:39:15.312Z,27.51
2023-09-27T13:44:24.504Z,27.71
2023-09-27T13:49:32.420Z,27.84
2023-09-27T13:54:37.474Z,27.79
2023-09-27T13:59:43.708Z,27.90
2023-09-27T14:04:57.023Z,27.81
2023-09-27T14:10:05.584Z,27.87
2023-09-27T14:15:13.910Z,27.45
2023-09-27T14:20:26.788Z,27.32
2023-09-27T14:25:32.521Z,27.76
2023-09-27T14:30:38.571Z,27.53
2023-09-27T14:40:55.212Z,27.16
2023-09-27T14:46:02.375Z,27.12
2023-09-27T14:51:16.535Z,27.28
2023-09-27T14:56:22.793Z,26.93
2023-09-27T15:01:28.026Z,26.63
2023-09-27T15:06:35.917Z,26.57
2023-09-27T15:11:40.948Z,26.51
2023-09-27T15:16:47.135Z,26.25
2023-09-27T15:21:56.204Z,26.18
2023-09-27T15:27:01.827Z,26.21
2023-09-27T15:32:07.216Z,25.88
2023-09-27T15:37:15.208Z,25.73
2023-09-27T15:42:25.287Z,25.72
2023-09-27T15:47:31.075Z,25.28
2023-09-27T15:52:41.831Z,25.06
2023-09-27T15:57:47.145Z,24.86
2023-09-27T16:02:52.751Z,24.82
2023-09-27T16:08:01.533Z,24.73
2023-09-27T16:13:07.480Z,24.49
2023-09-27T16:18:16.066Z,24.18
2023-09-27T16:23:24.352Z,24.11
2023-09-27T16:28:31.339Z,24.07
2023-09-27T16:33:37.571Z,23.70
2023-09-27T16:38:45.565Z,23.57
2023-09-27T16:43:51.449Z,23.59
2023-09-27T16:48:56.667Z,23.41
2023-09-27T16:54:07.679Z,23.33
2023-09-27T16:59:12.950Z,22.72
2023-09-27T17:04:18.002Z,22.60
2023-09-27T17:09:25.832Z,22.57
2023-09-27T17:14:31.050Z,22.54
2023-09-27T17:19:37.347Z,22.41
2023-09-27T17:24:45.050Z,22.40
2023-09-27T17:29:50.317Z,22.11
2023-09-27T17:34:55.546Z,22.00
2023-09-27T17:40:08.757Z,21.75
2023-09-27T17:45:16.786Z,21.58
2023-09-27T17:50:21.954Z,21.53
2023-09-27T17:55:30.034Z,21.35
2023-09-27T18:00:35.172Z,21.11
2023-09-27T18:05:41.603Z,21.11
2023-09-27T18:10:51.348Z,21.02
2023-09-27T18:15:56.563Z,20.92
2023-09-27T18:21:12.937Z,20.43
2023-09-27T18:26:23.919Z,20.25
2023-09-27T18:31:33.981Z,19.85
2023-09-27T18:36:39.520Z,19.89
2023-09-27T18:41:47.737Z,19.68
2023-09-27T18:46:54.902Z,19.58
2023-09-27T18:52:02.127Z,19.37
2023-09-27T18:57:09.969Z,19.30
2023-09-27T19:02:19.204Z,19.23
2023-09-27T19:07:27.114Z,19.19
2023-09-27T19:12:35.436Z,19.21
2023-09-27T19:17:41.126Z,18.95
2023-09-27T19:22:46.537Z,18.78
2023-09-27T19:27:54.724Z,18.50
2023-09-27T19:33:00.592Z,18.49
2023-09-27T19:38:05.950Z,18.20
2023-09-27T19:43:15.921Z,18.27
2023-09-27T19:48:23.529Z,17.84
2023-09-27T19:53:28.768Z,17.61
2023-09-27T19:58:37.045Z,17.69
2023-09-27T20:03:42.317Z,17.82
2023-09-27T20:08:49.707Z,17.48
2023-09-27T20:13:58.081Z,17.41
2023-09-27T20:19:05.464Z,17.25
2023-09-27T20:24:12.212Z,17.07
2023-09-27T20:29:20.018Z,16.98
2023-09-27T20:34:25.348Z,17.15
2023-09-27T20:39:33.841Z,17.02
2023-09-27T20:44:41.848Z,17.01
2023-09-27T20:49:47.107Z,16.74
2023-09-27T20:54:52.448Z,16.91
2023-09-27T21:00:00.588Z,16.54
2023-09-27T21:05:06.086Z,16.46
2023-09-27T21:10:13.438Z,16.46
2023-09-27T21:15:23.610Z,16.40
2023-09-27T21:20:28.766Z,16.31
2023-09-27T21:25:33.910Z,16.28
2023-09-27T21:30:41.705Z,16.17
2023-09-27T21:35:46.741Z,16.20
2023-09-27T21:40:53.111Z,16.34
2023-09-27T21:46:01.268Z,16.24
2023-09-27T21:51:06.527Z,16.10
2023-09-27T21:56:16.204Z,16.32
2023-09-27T22:01:23.941Z,16.30
2023-09-27T22:06:30.669Z,16.33
2023-09-27T22:11:40.309Z,16.51
2023-09-27T22:16:50.412Z,16.75
2023-09-27T22:21:59.471Z,16.93
2023-09-27T22:27:09.119Z,17.16
2023-09-27T22:32:16.886Z,17.28
2023-09-27T22:37:25.705Z,17.02
2023-09-27T22:42:33.154Z,16.97
2023-09-27T22:47:40.839Z,16.95
2023-09-27T22:52:49.507Z,16.92
2023-09-27T22:57:55.667Z,16.92
2023-09-27T23:03:03.569Z,16.99
2023-09-27T23:08:10.996Z,16.82
2023-09-27T23:13:31.113Z,16.71
2023-09-27T23:18:39.153Z,16.49
2023-09-27T23:23:57.506Z,16.53
2023-09-27T23:29:29.218Z,16.38
2023-09-27T23:34:38.679Z,16.06
2023-09-27T23:39:48.642Z,16.14
2023-09-27T23:44:55.203Z,16.31
2023-09-27T23:50:05.212Z,16.23
2023-09-27T23:55:12.635Z,16.31
